CheckWX is a tool to help pilots better visualize weather data.  It is not intended as a substitute for an official pre-flight weather briefing.

09:30:01 UTC

KILE METAR
Skylark Field Airport
Killeen, Texas, USA
Current

34 mins ago

KILE 200856Z AUTO 32007KT 10SM BKN009 OVC060 04/03 A2994 RMK AO2 SLP159 T00390028 58003
Observed
Feb-20 @ 08:56 UTC
Wind
  • 320° at 7 KTS
Visibility
16,093 meters
Flight Rules
IFR
Cloud Levels
  • Broken at 900' AGL
  • Overcast at 6,000' AGL
Temperature
C / 39°F
Dewpoint
C / 37°F
Humidity
93%
Altimeter
29.94" Hg
Pressure
1015.9 hPa
Previous

53 mins ago

KILE 200837Z AUTO 32006KT 10SM FEW009 BKN060 04/03 A2994 RMK AO2
Observed
Feb-20 @ 08:37 UTC
Wind
  • 320° at 6 KTS
Visibility
16,093 meters
Flight Rules
VFR
Cloud Levels
  • Few at 900' AGL
  • Broken at 6,000' AGL
Temperature
C / 39°F
Dewpoint
C / 37°F
Humidity
93%
Altimeter
29.94" Hg
Pressure
1013.92 hPa
Previous

2 hours ago

KILE 200756Z AUTO 31005KT 10SM OVC007 04/03 A2995 RMK AO2 SLP165 T00390028
Observed
Feb-20 @ 07:56 UTC
Wind
  • 310° at 5 KTS
Visibility
16,093 meters
Flight Rules
IFR
Cloud Levels
  • Overcast at 700' AGL
Temperature
C / 39°F
Dewpoint
C / 37°F
Humidity
93%
Altimeter
29.95" Hg
Pressure
1016.5 hPa